Weather History for Selawik, AK

Change the Weather History Date:

Saturday, October 20, 2012

  Actual Average Record
Temperature  
Mean Temperature 20 °F -  
Max Temperature 24 °F 21 °F 41 °F (2006)
Min Temperature 17 °F 13 °F -4 °F (1997)
Degree Days  
Heating Degree Days 44    
Moisture  
Dew Point 17 °F    
Average Humidity 80    
Maximum Humidity 93    
Minimum Humidity 74    
Precipitation  
Precipitation 0.00 in - - ()
Sea Level Pressure  
Sea Level Pressure 30.52 in    
Wind  
Wind Speed 7 mph (ESE)    
Max Wind Speed 18 mph    
Max Gust Speed -    
Visibility 10 miles    
Events      
Averages and records for this station are not official NWS values.
T = Trace of Precipitation, MM = Missing Value Source: NWS Daily Summary

Daily Weather History Graph

Daily Weather History Graph

Search for Another Location

Airport:

Trip Planner

Search our weather history database for the weather conditions in past years. The results will help you decide how hot, cold, wet, or windy it might be!

Date:

Astronomy

Oct. 20, 2012 Rise Set
Actual Time 9:58 AM AKDT 6:49 PM AKDT
Civil Twilight 9:03 AM AKDT 7:44 PM AKDT
Nautical Twilight 8:02 AM AKDT 8:45 PM AKDT
Astronomical Twilight 7:00 AM AKDT 9:46 PM AKDT
Moon 5:10 PM AKDT (10/20) 10:27 PM AKDT (10/20)
Length of Visible Light 10h 41m
Length of Day
8h 50m
Waxing Crescent, 35% of the Moon is Illuminated
Oct 20
Waxing Crescent
Oct 21
First Quarter
Oct 29
Full
Nov 6
Last Quarter
Nov 13
New

Hourly Weather History & Observations

Time (AKDT) Temp. Windchill Dew Point Humidity Pressure Visibility Wind Dir Wind Speed Gust Speed Precip Events Conditions
12:16 AM 23.0 °F 18.4 °F 17.6 °F 80% 30.43 in 10.0 mi South 3.5 mph - N/A   Overcast
12:36 AM 24.8 °F 19.1 °F 17.6 °F 74% 30.44 in 10.0 mi SSW 4.6 mph - N/A   Overcast
12:56 AM 23.0 °F 17.0 °F 17.6 °F 80% 30.44 in 10.0 mi South 4.6 mph - N/A   Overcast
1:16 AM 24.8 °F 19.1 °F 17.6 °F 74% 30.44 in 10.0 mi South 4.6 mph - N/A   Overcast
1:36 AM 24.8 °F 16.9 °F 17.6 °F 74% 30.45 in 10.0 mi South 6.9 mph - N/A   Overcast
1:56 AM 21.2 °F 14.9 °F 17.6 °F 86% 30.45 in 10.0 mi South 4.6 mph - N/A   Mostly Cloudy
2:16 AM 21.2 °F 14.9 °F 17.6 °F 86% 30.46 in 10.0 mi South 4.6 mph - N/A   Mostly Cloudy
2:36 AM 21.2 °F 13.6 °F 17.6 °F 86% 30.46 in 10.0 mi SSW 5.8 mph - N/A   Overcast
2:56 AM 21.2 °F 13.6 °F 17.6 °F 86% 30.46 in 10.0 mi South 5.8 mph - N/A   Overcast
3:16 AM 21.2 °F 14.9 °F 17.6 °F 86% 30.47 in 10.0 mi South 4.6 mph - N/A   Overcast
3:36 AM 21.2 °F 16.4 °F 17.6 °F 86% 30.47 in 10.0 mi SSW 3.5 mph - N/A   Overcast
3:56 AM 19.4 °F 14.3 °F 17.6 °F 93% 30.47 in 10.0 mi South 3.5 mph - N/A   Overcast
4:16 AM 19.4 °F 12.8 °F 17.6 °F 93% 30.47 in 10.0 mi South 4.6 mph - N/A   Overcast
4:36 AM 19.4 °F - 15.8 °F 86% 30.48 in 10.0 mi Calm Calm - N/A   Mostly Cloudy
4:56 AM 19.4 °F 14.3 °F 15.8 °F 86% 30.48 in 10.0 mi South 3.5 mph - N/A   Partly Cloudy
5:16 AM 19.4 °F 14.3 °F 15.8 °F 86% 30.48 in 10.0 mi South 3.5 mph - N/A   Clear
5:36 AM 19.4 °F 14.3 °F 15.8 °F 86% 30.48 in 10.0 mi SSE 3.5 mph - N/A   Clear
5:56 AM 19.4 °F 12.8 °F 17.6 °F 93% 30.48 in 10.0 mi SSE 4.6 mph - N/A   Clear
6:16 AM 17.6 °F 12.3 °F 15.8 °F 93% 30.49 in 10.0 mi SSE 3.5 mph - N/A   Clear
6:36 AM 17.6 °F 10.7 °F 15.8 °F 93% 30.49 in 10.0 mi SSE 4.6 mph - N/A   Clear
6:56 AM 19.4 °F - 15.8 °F 86% 30.50 in 10.0 mi Calm Calm - N/A   Scattered Clouds
7:16 AM 19.4 °F - 15.8 °F 86% 30.50 in 10.0 mi Calm Calm - N/A   Overcast
7:36 AM 19.4 °F 14.3 °F 15.8 °F 86% 30.50 in 10.0 mi SE 3.5 mph - N/A   Overcast
7:56 AM 19.4 °F 11.5 °F 15.8 °F 86% 30.51 in 10.0 mi SE 5.8 mph - N/A   Mostly Cloudy
8:16 AM 19.4 °F 12.8 °F 14.0 °F 80% 30.51 in 10.0 mi SSE 4.6 mph - N/A   Scattered Clouds
8:36 AM 19.4 °F 12.8 °F 15.8 °F 86% 30.51 in 10.0 mi SE 4.6 mph - N/A   Mostly Cloudy
8:56 AM 19.4 °F 12.8 °F 15.8 °F 86% 30.51 in 10.0 mi ESE 4.6 mph - N/A   Scattered Clouds
9:16 AM 17.6 °F 12.3 °F 12.2 °F 79% 30.52 in 10.0 mi ESE 3.5 mph - N/A   Clear
9:36 AM 17.6 °F 10.7 °F 14.0 °F 86% 30.52 in 10.0 mi ESE 4.6 mph - N/A   Mostly Cloudy
9:56 AM 17.6 °F 9.3 °F 14.0 °F 86% 30.52 in 10.0 mi ESE 5.8 mph - N/A   Mostly Cloudy
10:16 AM 19.4 °F 12.8 °F 15.8 °F 86% 30.52 in 6.0 mi ESE 4.6 mph - N/A   Overcast
10:36 AM 19.4 °F 11.5 °F 15.8 °F 86% 30.53 in 10.0 mi ESE 5.8 mph - N/A   Overcast
10:56 AM 19.4 °F 10.4 °F 15.8 °F 86% 30.54 in 10.0 mi ESE 6.9 mph - N/A   Overcast
11:16 AM 19.4 °F 10.4 °F 15.8 °F 86% 30.54 in 10.0 mi ESE 6.9 mph - N/A   Mostly Cloudy
11:36 AM 21.2 °F 12.6 °F 17.6 °F 86% 30.54 in 10.0 mi East 6.9 mph - N/A   Overcast
11:56 AM 21.2 °F 10.9 °F 17.6 °F 86% 30.53 in 10.0 mi East 9.2 mph - N/A   Overcast
12:16 PM 21.2 °F 12.6 °F 17.6 °F 86% 30.53 in 10.0 mi ESE 6.9 mph - N/A   Mostly Cloudy
12:36 PM 23.0 °F 14.7 °F 17.6 °F 80% 30.53 in 10.0 mi ESE 6.9 mph - N/A   Scattered Clouds
12:56 PM 24.8 °F 15.3 °F 17.6 °F 74% 30.54 in 10.0 mi East 9.2 mph - N/A   Mostly Cloudy
1:16 PM 24.8 °F 14.6 °F 17.6 °F 74% 30.54 in 10.0 mi East 10.4 mph - N/A   Overcast
1:36 PM 24.8 °F 14.6 °F 17.6 °F 74% 30.55 in 10.0 mi East 10.4 mph - N/A   Overcast
1:56 PM 24.8 °F 14.6 °F 17.6 °F 74% 30.55 in 10.0 mi East 10.4 mph - N/A   Overcast
2:16 PM 24.8 °F 15.3 °F 17.6 °F 74% 30.55 in 10.0 mi ESE 9.2 mph - N/A   Overcast
2:36 PM 24.8 °F 14.6 °F 17.6 °F 74% 30.54 in 10.0 mi East 10.4 mph - N/A   Overcast
2:56 PM 24.8 °F 14.6 °F 17.6 °F 74% 30.55 in 10.0 mi East 10.4 mph - N/A   Overcast
3:16 PM 24.8 °F 14.6 °F 17.6 °F 74% 30.54 in 10.0 mi East 10.4 mph - N/A   Overcast
3:36 PM 24.8 °F 13.4 °F 17.6 °F 74% 30.55 in 10.0 mi East 12.7 mph - N/A   Overcast
3:56 PM 24.8 °F 12.9 °F 17.6 °F 74% 30.54 in 10.0 mi East 13.8 mph - N/A   Overcast
4:16 PM 24.8 °F 11.9 °F 17.6 °F 74% 30.54 in 10.0 mi East 16.1 mph - N/A   Overcast
4:36 PM 24.8 °F 12.4 °F 17.6 °F 74% 30.54 in 10.0 mi East 15.0 mph - N/A   Overcast
4:56 PM 24.8 °F 12.4 °F 17.6 °F 74% 30.54 in 10.0 mi East 15.0 mph - N/A   Overcast
5:16 PM 24.8 °F 12.4 °F 17.6 °F 74% 30.54 in 10.0 mi East 15.0 mph - N/A   Overcast
5:36 PM 24.8 °F 13.4 °F 17.6 °F 74% 30.54 in 10.0 mi East 12.7 mph - N/A   Overcast
5:56 PM 24.8 °F 11.9 °F 17.6 °F 74% 30.55 in 10.0 mi East 16.1 mph - N/A   Overcast
6:36 PM 24.8 °F 11.9 °F 17.6 °F 74% 30.55 in 10.0 mi East 16.1 mph - N/A   Overcast
6:56 PM 24.8 °F 11.9 °F 17.6 °F 74% 30.55 in 10.0 mi East 16.1 mph - N/A   Overcast
7:16 PM 24.8 °F 12.4 °F 17.6 °F 74% 30.55 in 10.0 mi East 15.0 mph - N/A   Overcast
7:36 PM 24.8 °F 11.9 °F 17.6 °F 74% 30.56 in 10.0 mi East 16.1 mph - N/A   Overcast
7:56 PM 24.8 °F 12.4 °F 17.6 °F 74% 30.55 in 10.0 mi ENE 15.0 mph - N/A   Overcast
8:16 PM 24.8 °F 11.5 °F 17.6 °F 74% 30.55 in 10.0 mi ENE 17.3 mph - N/A   Overcast
8:36 PM 24.8 °F 11.1 °F 17.6 °F 74% 30.54 in 10.0 mi ENE 18.4 mph - N/A   Overcast
8:56 PM 24.8 °F 11.5 °F 17.6 °F 74% 30.54 in 10.0 mi ENE 17.3 mph - N/A   Overcast
9:16 PM 24.8 °F 11.9 °F 17.6 °F 74% 30.54 in 10.0 mi ENE 16.1 mph - N/A   Overcast
9:36 PM 24.8 °F 12.4 °F 17.6 °F 74% 30.55 in 10.0 mi ENE 15.0 mph - N/A   Overcast
9:56 PM 24.8 °F 12.4 °F 17.6 °F 74% 30.55 in 10.0 mi ENE 15.0 mph - N/A   Overcast
10:16 PM 24.8 °F 11.9 °F 17.6 °F 74% 30.54 in 10.0 mi ENE 16.1 mph - N/A   Overcast
10:36 PM 24.8 °F 11.5 °F 17.6 °F 74% 30.53 in 10.0 mi ENE 17.3 mph - N/A   Overcast
10:56 PM 24.8 °F 11.1 °F 17.6 °F 74% 30.53 in 10.0 mi ENE 18.4 mph - N/A   Overcast
11:16 PM 24.8 °F 11.5 °F 17.6 °F 74% 30.53 in 10.0 mi ENE 17.3 mph - N/A   Overcast
11:36 PM 24.8 °F 11.1 °F 17.6 °F 74% 30.53 in 10.0 mi ENE 18.4 mph - N/A   Overcast
11:56 PM 24.8 °F 11.1 °F 17.6 °F 74% 30.53 in 10.0 mi ENE 18.4 mph - N/A   Overcast